sensor_id;sensor_type;location;lat;lon;timestamp;temperature;humidity
37806;DHT22;25082;50.870;0.022;2023-06-10T00:01:45;21.60;67.30
37806;DHT22;25082;50.870;0.022;2023-06-10T00:04:15;21.60;67.90
37806;DHT22;25082;50.870;0.022;2023-06-10T00:06:44;21.60;67.30
37806;DHT22;25082;50.870;0.022;2023-06-10T00:09:10;21.60;67.30
37806;DHT22;25082;50.870;0.022;2023-06-10T00:11:39;21.50;67.20
37806;DHT22;25082;50.870;0.022;2023-06-10T00:14:05;21.50;67.30
37806;DHT22;25082;50.870;0.022;2023-06-10T00:16:31;21.50;67.20
37806;DHT22;25082;50.870;0.022;2023-06-10T00:18:57;21.50;67.20
37806;DHT22;25082;50.870;0.022;2023-06-10T00:21:30;21.60;67.30
37806;DHT22;25082;50.870;0.022;2023-06-10T00:23:56;21.50;67.20
37806;DHT22;25082;50.870;0.022;2023-06-10T00:26:22;21.50;67.20
37806;DHT22;25082;50.870;0.022;2023-06-10T00:28:49;21.50;67.20
37806;DHT22;25082;50.870;0.022;2023-06-10T00:31:15;21.50;67.20
37806;DHT22;25082;50.870;0.022;2023-06-10T00:33:41;21.50;67.20
37806;DHT22;25082;50.870;0.022;2023-06-10T00:36:07;21.50;67.20
37806;DHT22;25082;50.870;0.022;2023-06-10T00:38:33;21.50;67.20
37806;DHT22;25082;50.870;0.022;2023-06-10T00:40:58;21.50;67.20
37806;DHT22;25082;50.870;0.022;2023-06-10T00:43:25;21.50;67.10
37806;DHT22;25082;50.870;0.022;2023-06-10T00:45:51;21.50;67.20
37806;DHT22;25082;50.870;0.022;2023-06-10T00:48:18;21.50;67.10
37806;DHT22;25082;50.870;0.022;2023-06-10T00:50:45;21.50;67.10
37806;DHT22;25082;50.870;0.022;2023-06-10T00:53:12;21.50;67.10
37806;DHT22;25082;50.870;0.022;2023-06-10T00:55:38;21.50;67.10
37806;DHT22;25082;50.870;0.022;2023-06-10T00:58:04;21.50;67.10
37806;DHT22;25082;50.870;0.022;2023-06-10T01:00:30;21.50;67.10
37806;DHT22;25082;50.870;0.022;2023-06-10T01:02:55;21.40;67.10
37806;DHT22;25082;50.870;0.022;2023-06-10T01:05:23;21.40;67.50
37806;DHT22;25082;50.870;0.022;2023-06-10T01:10:24;21.40;67.00
37806;DHT22;25082;50.870;0.022;2023-06-10T01:13:02;21.40;67.00
37806;DHT22;25082;50.870;0.022;2023-06-10T01:15:31;21.40;67.00
37806;DHT22;25082;50.870;0.022;2023-06-10T01:17:58;21.40;66.90
37806;DHT22;25082;50.870;0.022;2023-06-10T01:20:26;21.40;66.90
37806;DHT22;25082;50.870;0.022;2023-06-10T01:22:54;21.40;67.00
37806;DHT22;25082;50.870;0.022;2023-06-10T01:25:21;21.40;66.90
37806;DHT22;25082;50.870;0.022;2023-06-10T01:28:04;21.40;67.50
37806;DHT22;25082;50.870;0.022;2023-06-10T01:30:36;21.40;66.90
37806;DHT22;25082;50.870;0.022;2023-06-10T01:33:07;21.40;66.90
37806;DHT22;25082;50.870;0.022;2023-06-10T01:35:37;21.40;66.90
37806;DHT22;25082;50.870;0.022;2023-06-10T01:38:03;21.40;66.90
37806;DHT22;25082;50.870;0.022;2023-06-10T01:40:30;21.40;66.90
37806;DHT22;25082;50.870;0.022;2023-06-10T01:42:56;21.40;66.90
37806;DHT22;25082;50.870;0.022;2023-06-10T01:45:22;21.40;66.90
37806;DHT22;25082;50.870;0.022;2023-06-10T01:47:48;21.40;66.80
37806;DHT22;25082;50.870;0.022;2023-06-10T01:50:13;21.40;67.30
37806;DHT22;25082;50.870;0.022;2023-06-10T01:52:39;21.40;66.80
37806;DHT22;25082;50.870;0.022;2023-06-10T01:55:05;21.30;66.80
37806;DHT22;25082;50.870;0.022;2023-06-10T01:57:31;21.40;66.90
37806;DHT22;25082;50.870;0.022;2023-06-10T01:59:57;21.40;66.90
37806;DHT22;25082;50.870;0.022;2023-06-10T02:02:22;21.40;66.90
37806;DHT22;25082;50.870;0.022;2023-06-10T02:04:49;21.30;66.80
37806;DHT22;25082;50.870;0.022;2023-06-10T02:07:14;21.30;66.80
37806;DHT22;25082;50.870;0.022;2023-06-10T02:09:40;21.40;66.80
37806;DHT22;25082;50.870;0.022;2023-06-10T02:12:06;21.40;66.90
37806;DHT22;25082;50.870;0.022;2023-06-10T02:14:33;21.30;66.80
37806;DHT22;25082;50.870;0.022;2023-06-10T02:16:59;21.30;67.30
37806;DHT22;25082;50.870;0.022;2023-06-10T02:19:24;21.30;66.70
37806;DHT22;25082;50.870;0.022;2023-06-10T02:21:52;21.30;66.80
37806;DHT22;25082;50.870;0.022;2023-06-10T02:24:18;21.30;66.70
37806;DHT22;25082;50.870;0.022;2023-06-10T02:26:43;21.30;66.70
37806;DHT22;25082;50.870;0.022;2023-06-10T02:29:09;21.30;66.80
37806;DHT22;25082;50.870;0.022;2023-06-10T02:31:35;21.30;66.80
37806;DHT22;25082;50.870;0.022;2023-06-10T02:34:01;21.30;66.70
37806;DHT22;25082;50.870;0.022;2023-06-10T02:36:28;21.30;66.80
37806;DHT22;25082;50.870;0.022;2023-06-10T02:38:54;21.30;66.70
37806;DHT22;25082;50.870;0.022;2023-06-10T02:41:19;21.30;66.70
37806;DHT22;25082;50.870;0.022;2023-06-10T02:43:47;21.20;66.70
37806;DHT22;25082;50.870;0.022;2023-06-10T02:46:13;21.20;66.60
37806;DHT22;25082;50.870;0.022;2023-06-10T02:48:45;21.30;66.60
37806;DHT22;25082;50.870;0.022;2023-06-10T02:51:12;21.20;66.70
37806;DHT22;25082;50.870;0.022;2023-06-10T02:53:37;21.20;66.70
37806;DHT22;25082;50.870;0.022;2023-06-10T02:56:04;21.20;66.60
37806;DHT22;25082;50.870;0.022;2023-06-10T02:58:30;21.20;66.60
37806;DHT22;25082;50.870;0.022;2023-06-10T03:00:55;21.30;66.70
37806;DHT22;25082;50.870;0.022;2023-06-10T03:03:21;21.20;66.60
37806;DHT22;25082;50.870;0.022;2023-06-10T03:05:48;21.20;66.60
37806;DHT22;25082;50.870;0.022;2023-06-10T03:08:14;21.20;66.60
37806;DHT22;25082;50.870;0.022;2023-06-10T03:10:40;21.20;66.70
37806;DHT22;25082;50.870;0.022;2023-06-10T03:13:06;21.20;66.60
37806;DHT22;25082;50.870;0.022;2023-06-10T03:15:31;21.20;66.60
37806;DHT22;25082;50.870;0.022;2023-06-10T03:17:59;21.20;66.60
37806;DHT22;25082;50.870;0.022;2023-06-10T03:20:25;21.20;66.50
37806;DHT22;25082;50.870;0.022;2023-06-10T03:22:53;21.20;66.50
37806;DHT22;25082;50.870;0.022;2023-06-10T03:25:19;21.20;66.60
37806;DHT22;25082;50.870;0.022;2023-06-10T03:27:46;21.20;66.60
37806;DHT22;25082;50.870;0.022;2023-06-10T03:30:13;21.20;66.60
37806;DHT22;25082;50.870;0.022;2023-06-10T03:32:39;21.20;66.50
37806;DHT22;25082;50.870;0.022;2023-06-10T03:35:06;21.10;66.50
37806;DHT22;25082;50.870;0.022;2023-06-10T03:37:32;21.20;66.50
37806;DHT22;25082;50.870;0.022;2023-06-10T03:39:58;21.10;66.50
37806;DHT22;25082;50.870;0.022;2023-06-10T03:42:24;21.10;66.40
37806;DHT22;25082;50.870;0.022;2023-06-10T03:44:50;21.10;66.50
37806;DHT22;25082;50.870;0.022;2023-06-10T03:47:16;21.10;66.40
37806;DHT22;25082;50.870;0.022;2023-06-10T03:49:41;21.10;66.40
37806;DHT22;25082;50.870;0.022;2023-06-10T03:52:07;21.10;66.40
37806;DHT22;25082;50.870;0.022;2023-06-10T03:54:33;21.10;66.40
37806;DHT22;25082;50.870;0.022;2023-06-10T03:57:02;21.10;66.40
37806;DHT22;25082;50.870;0.022;2023-06-10T03:59:28;21.10;66.40
37806;DHT22;25082;50.870;0.022;2023-06-10T04:01:54;21.10;66.40
37806;DHT22;25082;50.870;0.022;2023-06-10T04:04:20;21.10;66.40
37806;DHT22;25082;50.870;0.022;2023-06-10T04:06:46;21.10;66.40
37806;DHT22;25082;50.870;0.022;2023-06-10T04:09:12;21.10;66.30
37806;DHT22;25082;50.870;0.022;2023-06-10T04:11:38;21.10;66.30
37806;DHT22;25082;50.870;0.022;2023-06-10T04:14:04;21.10;66.40
37806;DHT22;25082;50.870;0.022;2023-06-10T04:16:29;21.10;66.30
37806;DHT22;25082;50.870;0.022;2023-06-10T04:18:55;21.10;66.40
37806;DHT22;25082;50.870;0.022;2023-06-10T04:21:21;21.10;66.40
37806;DHT22;25082;50.870;0.022;2023-06-10T04:23:47;21.10;66.30
37806;DHT22;25082;50.870;0.022;2023-06-10T04:26:14;21.10;66.30
37806;DHT22;25082;50.870;0.022;2023-06-10T04:28:39;21.10;66.30
37806;DHT22;25082;50.870;0.022;2023-06-10T04:31:05;21.10;66.30
37806;DHT22;25082;50.870;0.022;2023-06-10T04:33:31;21.10;66.30
37806;DHT22;25082;50.870;0.022;2023-06-10T04:35:57;21.10;66.30
37806;DHT22;25082;50.870;0.022;2023-06-10T04:38:23;21.10;66.30
37806;DHT22;25082;50.870;0.022;2023-06-10T04:40:49;21.10;66.30
37806;DHT22;25082;50.870;0.022;2023-06-10T04:43:15;21.10;66.30
37806;DHT22;25082;50.870;0.022;2023-06-10T04:45:41;21.00;66.30
37806;DHT22;25082;50.870;0.022;2023-06-10T04:48:10;21.00;66.30
37806;DHT22;25082;50.870;0.022;2023-06-10T04:50:37;21.10;66.30
37806;DHT22;25082;50.870;0.022;2023-06-10T04:53:03;21.00;66.30
37806;DHT22;25082;50.870;0.022;2023-06-10T04:55:28;21.00;66.30
37806;DHT22;25082;50.870;0.022;2023-06-10T04:57:54;21.00;66.20
37806;DHT22;25082;50.870;0.022;2023-06-10T05:00:20;21.00;66.30
37806;DHT22;25082;50.870;0.022;2023-06-10T05:02:46;21.00;66.30
37806;DHT22;25082;50.870;0.022;2023-06-10T05:05:17;21.00;66.30
37806;DHT22;25082;50.870;0.022;2023-06-10T05:07:43;21.00;66.30
37806;DHT22;25082;50.870;0.022;2023-06-10T05:10:09;21.00;66.30
37806;DHT22;25082;50.870;0.022;2023-06-10T05:12:35;21.10;66.30
37806;DHT22;25082;50.870;0.022;2023-06-10T05:15:01;21.00;66.30
37806;DHT22;25082;50.870;0.022;2023-06-10T05:17:28;21.00;66.30
37806;DHT22;25082;50.870;0.022;2023-06-10T05:19:54;21.00;66.30
37806;DHT22;25082;50.870;0.022;2023-06-10T05:22:19;21.00;66.30
37806;DHT22;25082;50.870;0.022;2023-06-10T05:24:45;21.00;66.30
37806;DHT22;25082;50.870;0.022;2023-06-10T05:27:11;21.00;66.30
37806;DHT22;25082;50.870;0.022;2023-06-10T05:29:37;21.00;66.30
37806;DHT22;25082;50.870;0.022;2023-06-10T05:32:03;21.00;66.30
37806;DHT22;25082;50.870;0.022;2023-06-10T05:34:29;21.00;66.30
37806;DHT22;25082;50.870;0.022;2023-06-10T05:36:55;21.00;66.30
37806;DHT22;25082;50.870;0.022;2023-06-10T05:39:21;21.00;66.30
37806;DHT22;25082;50.870;0.022;2023-06-10T05:41:46;21.00;66.30
37806;DHT22;25082;50.870;0.022;2023-06-10T05:44:12;21.00;66.30
37806;DHT22;25082;50.870;0.022;2023-06-10T05:46:38;21.00;66.30
37806;DHT22;25082;50.870;0.022;2023-06-10T05:49:04;21.00;66.30
37806;DHT22;25082;50.870;0.022;2023-06-10T05:51:29;21.00;66.30
37806;DHT22;25082;50.870;0.022;2023-06-10T05:53:55;21.00;66.40
37806;DHT22;25082;50.870;0.022;2023-06-10T05:56:21;21.00;66.30
37806;DHT22;25082;50.870;0.022;2023-06-10T05:58:48;21.00;66.30
37806;DHT22;25082;50.870;0.022;2023-06-10T06:01:14;21.00;66.40
37806;DHT22;25082;50.870;0.022;2023-06-10T06:03:40;21.00;66.40
37806;DHT22;25082;50.870;0.022;2023-06-10T06:06:06;21.00;66.40
37806;DHT22;25082;50.870;0.022;2023-06-10T06:08:32;21.00;66.40
37806;DHT22;25082;50.870;0.022;2023-06-10T06:10:58;21.00;66.40
37806;DHT22;25082;50.870;0.022;2023-06-10T06:13:24;21.00;66.40
37806;DHT22;25082;50.870;0.022;2023-06-10T06:15:50;20.90;66.30
37806;DHT22;25082;50.870;0.022;2023-06-10T06:18:16;21.00;66.40
37806;DHT22;25082;50.870;0.022;2023-06-10T06:20:42;20.90;66.40
37806;DHT22;25082;50.870;0.022;2023-06-10T06:23:07;21.00;66.40
37806;DHT22;25082;50.870;0.022;2023-06-10T06:25:36;20.90;66.40
37806;DHT22;25082;50.870;0.022;2023-06-10T06:28:06;20.90;66.40
37806;DHT22;25082;50.870;0.022;2023-06-10T06:30:32;21.00;66.50
37806;DHT22;25082;50.870;0.022;2023-06-10T06:32:58;20.90;66.40
37806;DHT22;25082;50.870;0.022;2023-06-10T06:35:24;21.00;66.50
37806;DHT22;25082;50.870;0.022;2023-06-10T06:37:50;20.90;66.40
37806;DHT22;25082;50.870;0.022;2023-06-10T06:40:16;21.00;66.50
37806;DHT22;25082;50.870;0.022;2023-06-10T06:42:41;20.90;66.50
37806;DHT22;25082;50.870;0.022;2023-06-10T06:45:07;20.90;66.50
37806;DHT22;25082;50.870;0.022;2023-06-10T06:47:33;20.90;66.50
37806;DHT22;25082;50.870;0.022;2023-06-10T06:49:59;20.90;66.50
37806;DHT22;25082;50.870;0.022;2023-06-10T06:52:25;20.90;66.50
37806;DHT22;25082;50.870;0.022;2023-06-10T06:54:50;20.90;66.60
37806;DHT22;25082;50.870;0.022;2023-06-10T06:57:16;20.90;66.50
37806;DHT22;25082;50.870;0.022;2023-06-10T06:59:42;20.90;66.50
37806;DHT22;25082;50.870;0.022;2023-06-10T07:02:08;20.90;66.50
37806;DHT22;25082;50.870;0.022;2023-06-10T07:04:33;20.90;66.60
37806;DHT22;25082;50.870;0.022;2023-06-10T07:06:59;20.90;66.60
37806;DHT22;25082;50.870;0.022;2023-06-10T07:09:25;20.90;66.60
37806;DHT22;25082;50.870;0.022;2023-06-10T07:11:51;20.90;66.60
37806;DHT22;25082;50.870;0.022;2023-06-10T07:14:17;21.00;66.70
37806;DHT22;25082;50.870;0.022;2023-06-10T07:16:42;20.90;66.60
37806;DHT22;25082;50.870;0.022;2023-06-10T07:19:10;20.90;66.60
37806;DHT22;25082;50.870;0.022;2023-06-10T07:21:36;20.90;66.60
37806;DHT22;25082;50.870;0.022;2023-06-10T07:24:03;20.90;66.70
37806;DHT22;25082;50.870;0.022;2023-06-10T07:26:29;20.90;66.70
37806;DHT22;25082;50.870;0.022;2023-06-10T07:28:55;20.90;66.70
37806;DHT22;25082;50.870;0.022;2023-06-10T07:31:21;20.90;66.70
37806;DHT22;25082;50.870;0.022;2023-06-10T07:33:47;20.90;66.70
37806;DHT22;25082;50.870;0.022;2023-06-10T07:36:13;21.00;66.80
37806;DHT22;25082;50.870;0.022;2023-06-10T07:38:38;20.90;66.80
37806;DHT22;25082;50.870;0.022;2023-06-10T07:41:04;21.00;66.90
37806;DHT22;25082;50.870;0.022;2023-06-10T07:43:30;21.00;66.90
37806;DHT22;25082;50.870;0.022;2023-06-10T07:45:55;21.00;66.90
37806;DHT22;25082;50.870;0.022;2023-06-10T07:48:21;20.90;66.80
37806;DHT22;25082;50.870;0.022;2023-06-10T07:50:47;20.90;66.80
37806;DHT22;25082;50.870;0.022;2023-06-10T07:53:13;21.00;66.90
37806;DHT22;25082;50.870;0.022;2023-06-10T07:55:38;20.90;66.80
37806;DHT22;25082;50.870;0.022;2023-06-10T07:58:04;20.90;66.80
37806;DHT22;25082;50.870;0.022;2023-06-10T08:00:30;20.90;66.80
37806;DHT22;25082;50.870;0.022;2023-06-10T08:02:55;20.90;66.80
37806;DHT22;25082;50.870;0.022;2023-06-10T08:05:21;21.00;66.80
37806;DHT22;25082;50.870;0.022;2023-06-10T08:07:47;21.00;66.80
37806;DHT22;25082;50.870;0.022;2023-06-10T08:10:13;21.00;66.80
37806;DHT22;25082;50.870;0.022;2023-06-10T08:12:39;21.00;66.80
37806;DHT22;25082;50.870;0.022;2023-06-10T08:15:05;21.00;66.80
37806;DHT22;25082;50.870;0.022;2023-06-10T08:17:31;21.00;67.00
37806;DHT22;25082;50.870;0.022;2023-06-10T08:19:56;21.00;66.90
37806;DHT22;25082;50.870;0.022;2023-06-10T08:22:22;21.00;66.80
37806;DHT22;25082;50.870;0.022;2023-06-10T08:24:48;21.00;66.80
37806;DHT22;25082;50.870;0.022;2023-06-10T08:27:14;21.00;66.80
37806;DHT22;25082;50.870;0.022;2023-06-10T08:29:40;21.00;66.80
37806;DHT22;25082;50.870;0.022;2023-06-10T08:32:06;21.00;66.80
37806;DHT22;25082;50.870;0.022;2023-06-10T08:34:35;21.00;66.80
37806;DHT22;25082;50.870;0.022;2023-06-10T08:37:02;21.00;66.80
37806;DHT22;25082;50.870;0.022;2023-06-10T08:39:28;21.10;66.90
37806;DHT22;25082;50.870;0.022;2023-06-10T08:44:32;21.10;66.80
37806;DHT22;25082;50.870;0.022;2023-06-10T08:47:24;21.10;66.80
37806;DHT22;25082;50.870;0.022;2023-06-10T08:49:51;21.00;66.80
37806;DHT22;25082;50.870;0.022;2023-06-10T08:52:20;21.00;66.80
37806;DHT22;25082;50.870;0.022;2023-06-10T08:54:54;21.00;66.80
37806;DHT22;25082;50.870;0.022;2023-06-10T08:57:22;21.10;66.80
37806;DHT22;25082;50.870;0.022;2023-06-10T08:59:49;21.10;66.80
37806;DHT22;25082;50.870;0.022;2023-06-10T09:02:15;21.10;66.80
37806;DHT22;25082;50.870;0.022;2023-06-10T09:04:46;21.10;66.80
37806;DHT22;25082;50.870;0.022;2023-06-10T09:07:14;21.10;67.00
37806;DHT22;25082;50.870;0.022;2023-06-10T09:09:42;21.10;67.30
37806;DHT22;25082;50.870;0.022;2023-06-10T09:12:09;21.10;67.40
37806;DHT22;25082;50.870;0.022;2023-06-10T09:14:35;21.10;67.70
37806;DHT22;25082;50.870;0.022;2023-06-10T09:17:02;21.20;68.80
37806;DHT22;25082;50.870;0.022;2023-06-10T09:19:28;21.10;69.20
37806;DHT22;25082;50.870;0.022;2023-06-10T09:21:54;21.20;69.40
37806;DHT22;25082;50.870;0.022;2023-06-10T09:24:23;21.20;69.60
37806;DHT22;25082;50.870;0.022;2023-06-10T09:26:49;21.20;69.90
37806;DHT22;25082;50.870;0.022;2023-06-10T09:29:16;21.20;70.10
37806;DHT22;25082;50.870;0.022;2023-06-10T09:31:44;21.20;70.30
37806;DHT22;25082;50.870;0.022;2023-06-10T09:34:12;21.20;70.30
37806;DHT22;25082;50.870;0.022;2023-06-10T09:36:38;21.30;70.70
37806;DHT22;25082;50.870;0.022;2023-06-10T09:39:04;21.30;70.90
37806;DHT22;25082;50.870;0.022;2023-06-10T09:41:40;21.30;70.90
37806;DHT22;25082;50.870;0.022;2023-06-10T09:44:12;21.30;70.70
37806;DHT22;25082;50.870;0.022;2023-06-10T09:46:38;21.40;70.90
37806;DHT22;25082;50.870;0.022;2023-06-10T09:49:04;21.30;70.70
37806;DHT22;25082;50.870;0.022;2023-06-10T09:51:30;21.30;70.60
37806;DHT22;25082;50.870;0.022;2023-06-10T09:53:55;21.40;70.30
37806;DHT22;25082;50.870;0.022;2023-06-10T09:56:33;21.40;70.20
37806;DHT22;25082;50.870;0.022;2023-06-10T09:58:59;21.40;70.10
37806;DHT22;25082;50.870;0.022;2023-06-10T10:01:25;21.40;70.10
37806;DHT22;25082;50.870;0.022;2023-06-10T10:03:51;21.40;70.10
37806;DHT22;25082;50.870;0.022;2023-06-10T10:06:18;21.40;70.00
37806;DHT22;25082;50.870;0.022;2023-06-10T10:08:49;21.40;69.80
37806;DHT22;25082;50.870;0.022;2023-06-10T10:11:17;21.40;69.80
37806;DHT22;25082;50.870;0.022;2023-06-10T10:13:45;21.40;69.90
37806;DHT22;25082;50.870;0.022;2023-06-10T10:16:27;21.40;69.60
37806;DHT22;25082;50.870;0.022;2023-06-10T10:18:56;21.50;69.60
37806;DHT22;25082;50.870;0.022;2023-06-10T10:21:27;21.50;69.70
37806;DHT22;25082;50.870;0.022;2023-06-10T10:24:05;21.50;69.80
37806;DHT22;25082;50.870;0.022;2023-06-10T10:26:34;21.50;69.80
37806;DHT22;25082;50.870;0.022;2023-06-10T10:29:24;21.50;69.80
37806;DHT22;25082;50.870;0.022;2023-06-10T10:31:55;21.50;69.90
37806;DHT22;25082;50.870;0.022;2023-06-10T10:37:09;21.50;70.10
37806;DHT22;25082;50.870;0.022;2023-06-10T10:39:36;21.60;70.10
37806;DHT22;25082;50.870;0.022;2023-06-10T10:42:02;21.60;70.10
37806;DHT22;25082;50.870;0.022;2023-06-10T10:44:30;21.60;70.00
37806;DHT22;25082;50.870;0.022;2023-06-10T10:46:56;21.60;70.20
37806;DHT22;25082;50.870;0.022;2023-06-10T10:49:25;21.60;70.40
37806;DHT22;25082;50.870;0.022;2023-06-10T10:51:58;21.70;69.90
37806;DHT22;25082;50.870;0.022;2023-06-10T10:54:32;21.70;69.40
37806;DHT22;25082;50.870;0.022;2023-06-10T10:57:15;21.70;69.50
37806;DHT22;25082;50.870;0.022;2023-06-10T11:02:16;21.70;69.40
37806;DHT22;25082;50.870;0.022;2023-06-10T11:04:48;21.80;69.50
37806;DHT22;25082;50.870;0.022;2023-06-10T11:07:14;21.80;69.50
37806;DHT22;25082;50.870;0.022;2023-06-10T11:15:12;21.90;69.60
37806;DHT22;25082;50.870;0.022;2023-06-10T11:18:10;21.90;69.40
37806;DHT22;25082;50.870;0.022;2023-06-10T11:26:19;21.90;69.60
37806;DHT22;25082;50.870;0.022;2023-06-10T11:31:21;21.90;70.00
37806;DHT22;25082;50.870;0.022;2023-06-10T11:33:55;21.90;69.80
37806;DHT22;25082;50.870;0.022;2023-06-10T11:36:25;21.90;69.80
37806;DHT22;25082;50.870;0.022;2023-06-10T11:39:00;21.90;69.60
37806;DHT22;25082;50.870;0.022;2023-06-10T11:41:26;21.90;69.50
37806;DHT22;25082;50.870;0.022;2023-06-10T11:43:53;21.90;69.50
37806;DHT22;25082;50.870;0.022;2023-06-10T11:46:22;21.90;69.50
37806;DHT22;25082;50.870;0.022;2023-06-10T11:48:52;21.90;69.50
37806;DHT22;25082;50.870;0.022;2023-06-10T11:51:19;21.90;69.50
37806;DHT22;25082;50.870;0.022;2023-06-10T11:53:48;21.90;69.50
37806;DHT22;25082;50.870;0.022;2023-06-10T11:56:20;21.90;69.40
37806;DHT22;25082;50.870;0.022;2023-06-10T12:01:24;21.90;69.30
37806;DHT22;25082;50.870;0.022;2023-06-10T12:04:03;21.90;69.30
37806;DHT22;25082;50.870;0.022;2023-06-10T12:06:49;21.90;69.30
37806;DHT22;25082;50.870;0.022;2023-06-10T12:11:43;21.90;69.20
37806;DHT22;25082;50.870;0.022;2023-06-10T12:14:09;21.90;69.20
37806;DHT22;25082;50.870;0.022;2023-06-10T12:16:35;21.90;69.20
37806;DHT22;25082;50.870;0.022;2023-06-10T12:19:02;21.90;69.10
37806;DHT22;25082;50.870;0.022;2023-06-10T12:21:28;22.00;69.20
37806;DHT22;25082;50.870;0.022;2023-06-10T12:24:05;22.00;69.10
37806;DHT22;25082;50.870;0.022;2023-06-10T12:26:39;22.00;69.10
37806;DHT22;25082;50.870;0.022;2023-06-10T12:34:32;22.00;69.00
37806;DHT22;25082;50.870;0.022;2023-06-10T12:36:59;22.00;69.00
37806;DHT22;25082;50.870;0.022;2023-06-10T12:39:24;22.00;69.00
37806;DHT22;25082;50.870;0.022;2023-06-10T12:41:51;22.00;69.00
37806;DHT22;25082;50.870;0.022;2023-06-10T12:44:17;22.00;69.00
37806;DHT22;25082;50.870;0.022;2023-06-10T12:46:43;22.00;69.00
37806;DHT22;25082;50.870;0.022;2023-06-10T12:49:19;22.00;69.00
37806;DHT22;25082;50.870;0.022;2023-06-10T12:51:45;22.00;69.00
37806;DHT22;25082;50.870;0.022;2023-06-10T12:54:11;22.00;68.90
37806;DHT22;25082;50.870;0.022;2023-06-10T12:56:36;22.00;69.00
37806;DHT22;25082;50.870;0.022;2023-06-10T12:59:02;22.00;69.00
37806;DHT22;25082;50.870;0.022;2023-06-10T13:01:28;22.00;69.00
37806;DHT22;25082;50.870;0.022;2023-06-10T13:03:57;22.00;68.90
37806;DHT22;25082;50.870;0.022;2023-06-10T13:06:23;22.00;68.90
37806;DHT22;25082;50.870;0.022;2023-06-10T13:08:48;22.00;68.80
37806;DHT22;25082;50.870;0.022;2023-06-10T13:11:14;22.00;68.90
37806;DHT22;25082;50.870;0.022;2023-06-10T13:13:40;22.10;68.90
37806;DHT22;25082;50.870;0.022;2023-06-10T13:16:05;22.00;68.80
37806;DHT22;25082;50.870;0.022;2023-06-10T13:18:32;22.00;68.80
37806;DHT22;25082;50.870;0.022;2023-06-10T13:21:06;22.10;68.80
37806;DHT22;25082;50.870;0.022;2023-06-10T13:23:32;22.10;68.80
37806;DHT22;25082;50.870;0.022;2023-06-10T13:25:58;22.10;68.80
37806;DHT22;25082;50.870;0.022;2023-06-10T13:28:24;22.10;68.80
37806;DHT22;25082;50.870;0.022;2023-06-10T13:30:50;22.10;68.80
37806;DHT22;25082;50.870;0.022;2023-06-10T13:33:15;22.10;68.80
37806;DHT22;25082;50.870;0.022;2023-06-10T13:35:41;22.10;68.80
37806;DHT22;25082;50.870;0.022;2023-06-10T13:38:07;22.10;68.80
37806;DHT22;25082;50.870;0.022;2023-06-10T13:40:33;22.10;68.80
37806;DHT22;25082;50.870;0.022;2023-06-10T13:42:59;22.10;68.80
37806;DHT22;25082;50.870;0.022;2023-06-10T13:45:25;22.10;68.80
37806;DHT22;25082;50.870;0.022;2023-06-10T13:47:51;22.10;68.80
37806;DHT22;25082;50.870;0.022;2023-06-10T13:50:16;22.10;68.80
37806;DHT22;25082;50.870;0.022;2023-06-10T13:52:42;22.10;68.80
37806;DHT22;25082;50.870;0.022;2023-06-10T13:55:08;22.10;68.80
37806;DHT22;25082;50.870;0.022;2023-06-10T13:57:34;22.10;68.80
37806;DHT22;25082;50.870;0.022;2023-06-10T14:00:00;22.10;68.80
37806;DHT22;25082;50.870;0.022;2023-06-10T14:02:26;22.10;68.70
37806;DHT22;25082;50.870;0.022;2023-06-10T14:04:52;22.10;68.70
37806;DHT22;25082;50.870;0.022;2023-06-10T14:07:17;22.10;68.70
37806;DHT22;25082;50.870;0.022;2023-06-10T14:09:43;22.10;68.70
37806;DHT22;25082;50.870;0.022;2023-06-10T14:12:09;22.20;68.70
37806;DHT22;25082;50.870;0.022;2023-06-10T14:14:36;22.10;68.70
37806;DHT22;25082;50.870;0.022;2023-06-10T14:17:02;22.10;68.70
37806;DHT22;25082;50.870;0.022;2023-06-10T14:19:30;22.20;68.70
37806;DHT22;25082;50.870;0.022;2023-06-10T14:21:56;22.10;68.60
37806;DHT22;25082;50.870;0.022;2023-06-10T14:24:21;22.20;68.70
37806;DHT22;25082;50.870;0.022;2023-06-10T14:26:47;22.20;68.60
37806;DHT22;25082;50.870;0.022;2023-06-10T14:29:13;22.20;68.60
37806;DHT22;25082;50.870;0.022;2023-06-10T14:31:40;22.20;68.60
37806;DHT22;25082;50.870;0.022;2023-06-10T14:34:06;22.20;68.60
37806;DHT22;25082;50.870;0.022;2023-06-10T14:36:33;22.20;68.50
37806;DHT22;25082;50.870;0.022;2023-06-10T14:38:59;22.20;68.50
37806;DHT22;25082;50.870;0.022;2023-06-10T14:41:25;22.20;68.60
37806;DHT22;25082;50.870;0.022;2023-06-10T14:43:52;22.20;68.60
37806;DHT22;25082;50.870;0.022;2023-06-10T14:46:17;22.20;68.60
37806;DHT22;25082;50.870;0.022;2023-06-10T14:48:46;22.20;68.50
37806;DHT22;25082;50.870;0.022;2023-06-10T14:51:12;22.20;68.50
37806;DHT22;25082;50.870;0.022;2023-06-10T14:53:37;22.30;68.60
37806;DHT22;25082;50.870;0.022;2023-06-10T14:56:04;22.30;68.60
37806;DHT22;25082;50.870;0.022;2023-06-10T14:58:29;22.30;68.60
37806;DHT22;25082;50.870;0.022;2023-06-10T15:00:55;22.30;68.60
37806;DHT22;25082;50.870;0.022;2023-06-10T15:03:21;22.30;68.60
37806;DHT22;25082;50.870;0.022;2023-06-10T15:05:47;22.30;68.60
37806;DHT22;25082;50.870;0.022;2023-06-10T15:08:12;22.30;68.60
37806;DHT22;25082;50.870;0.022;2023-06-10T15:10:38;22.30;68.60
37806;DHT22;25082;50.870;0.022;2023-06-10T15:13:04;22.30;68.60
37806;DHT22;25082;50.870;0.022;2023-06-10T15:15:29;22.30;68.60
37806;DHT22;25082;50.870;0.022;2023-06-10T15:17:55;22.30;68.50
37806;DHT22;25082;50.870;0.022;2023-06-10T15:20:21;22.40;68.60
37806;DHT22;25082;50.870;0.022;2023-06-10T15:22:47;22.40;68.60
37806;DHT22;25082;50.870;0.022;2023-06-10T15:25:13;22.40;68.50
37806;DHT22;25082;50.870;0.022;2023-06-10T15:27:38;22.40;68.50
37806;DHT22;25082;50.870;0.022;2023-06-10T15:30:05;22.40;68.50
37806;DHT22;25082;50.870;0.022;2023-06-10T15:32:31;22.40;68.50
37806;DHT22;25082;50.870;0.022;2023-06-10T15:34:56;22.40;68.50
37806;DHT22;25082;50.870;0.022;2023-06-10T15:37:22;22.50;68.50
37806;DHT22;25082;50.870;0.022;2023-06-10T15:39:48;22.50;68.50
37806;DHT22;25082;50.870;0.022;2023-06-10T15:42:13;22.50;68.50
37806;DHT22;25082;50.870;0.022;2023-06-10T15:44:39;22.50;68.50
37806;DHT22;25082;50.870;0.022;2023-06-10T15:47:05;22.50;68.50
37806;DHT22;25082;50.870;0.022;2023-06-10T15:49:31;22.60;68.50
37806;DHT22;25082;50.870;0.022;2023-06-10T15:51:56;22.50;68.50
37806;DHT22;25082;50.870;0.022;2023-06-10T15:54:22;22.60;68.50
37806;DHT22;25082;50.870;0.022;2023-06-10T15:56:48;22.60;68.50
37806;DHT22;25082;50.870;0.022;2023-06-10T15:59:14;22.60;68.50
37806;DHT22;25082;50.870;0.022;2023-06-10T16:01:40;22.60;68.40
37806;DHT22;25082;50.870;0.022;2023-06-10T16:04:05;22.60;68.40